Time;durP1;ratioP1;P1;durP2;ratioP2;P2;SDS_P1;SDS_P2;PMS_P1;PMS_P2;Temp;Humidity;BMP_temperature;BMP_pressure;BME280_temperature;BME280_humidity;BME280_pressure;Samples;Min_cycle;Max_cycle;Signal;HPM_P1;HPM_P2
2021/08/10 04:02:19;;;;;;;3.78;3.63;;;13.70;99.90;;;;;;5096717;23;20846;-68
2021/08/10 04:04:49;;;;;;;3.70;3.60;;;13.80;99.90;;;;;;4915166;29;20273;-67
2021/08/10 04:07:17;;;;;;;3.88;3.60;;;13.80;99.90;;;;;;4914956;29;20210;-67
2021/08/10 04:09:44;;;;;;;3.33;3.15;;;13.80;99.90;;;;;;4915746;29;20309;-66
2021/08/10 04:12:12;;;;;;;3.45;3.25;;;13.70;99.90;;;;;;4915167;29;20226;-67
2021/08/10 04:14:41;;;;;;;3.47;3.20;;;13.70;99.90;;;;;;4915876;29;20679;-67
2021/08/10 04:17:08;;;;;;;3.55;3.40;;;13.80;99.90;;;;;;4915799;29;20612;-67
2021/08/10 04:19:45;;;;;;;3.05;2.85;;;13.80;99.90;;;;;;4915071;29;20210;-67
2021/08/10 04:22:12;;;;;;;3.47;3.23;;;13.80;99.90;;;;;;4915162;29;20317;-67
2021/08/10 04:24:39;;;;;;;3.78;3.47;;;13.90;99.90;;;;;;4915615;29;20885;-67
2021/08/10 04:27:05;;;;;;;6.10;3.50;;;13.90;99.90;;;;;;4915637;29;20593;-67
2021/08/10 04:29:32;;;;;;;3.90;3.60;;;14.00;99.90;;;;;;4915329;29;20281;-67
2021/08/10 04:31:59;;;;;;;2.97;2.88;;;14.00;99.90;;;;;;4914979;29;20989;-68
2021/08/10 04:34:25;;;;;;;4.20;4.00;;;14.00;99.90;;;;;;4914760;29;20210;-66
2021/08/10 04:36:53;;;;;;;3.47;3.30;;;14.00;99.90;;;;;;4914956;29;20202;-66
2021/08/10 04:39:20;;;;;;;2.77;2.77;;;14.10;99.90;;;;;;4915732;29;20514;-66
2021/08/10 04:41:47;;;;;;;3.28;3.08;;;14.10;99.90;;;;;;4914738;29;20486;-67
2021/08/10 04:44:13;;;;;;;3.20;2.97;;;14.10;99.90;;;;;;4918037;29;20330;-66
2021/08/10 04:46:41;;;;;;;3.10;3.00;;;14.10;99.90;;;;;;4919531;29;20521;-67
2021/08/10 04:49:07;;;;;;;3.28;3.05;;;14.10;99.90;;;;;;4913465;29;20558;-66
2021/08/10 04:51:34;;;;;;;4.60;3.17;;;14.10;99.90;;;;;;4909951;29;20309;-66
2021/08/10 04:54:02;;;;;;;3.17;2.97;;;14.10;99.90;;;;;;4918481;29;20498;-66
2021/08/10 04:56:29;;;;;;;3.23;3.07;;;14.20;99.90;;;;;;4918516;29;20462;-67
2021/08/10 04:58:55;;;;;;;2.97;2.87;;;14.20;99.90;;;;;;4918102;29;20462;-67
2021/08/10 05:01:22;;;;;;;4.43;3.23;;;14.30;99.90;;;;;;4928073;29;20493;-67
2021/08/10 05:03:49;;;;;;;3.30;3.10;;;14.40;99.90;;;;;;4931034;29;20462;-67
2021/08/10 05:06:15;;;;;;;4.70;3.87;;;14.40;99.90;;;;;;4922902;29;20463;-67
2021/08/10 05:08:42;;;;;;;3.60;3.30;;;14.50;99.90;;;;;;4917937;29;20585;-67
2021/08/10 05:11:11;;;;;;;3.33;3.23;;;14.50;99.90;;;;;;4918565;29;20474;-67
2021/08/10 05:13:38;;;;;;;3.23;3.13;;;14.60;99.90;;;;;;4917759;29;20463;-67
2021/08/10 05:16:06;;;;;;;3.23;3.10;;;14.70;99.90;;;;;;4918429;29;20465;-67
2021/08/10 05:18:32;;;;;;;2.60;2.50;;;14.70;99.90;;;;;;4918244;29;20477;-67
2021/08/10 05:20:59;;;;;;;3.33;2.60;;;14.70;99.90;;;;;;4918688;29;20482;-66
2021/08/10 05:23:26;;;;;;;4.30;3.40;;;14.70;99.90;;;;;;4917963;29;20821;-67
2021/08/10 05:25:53;;;;;;;2.70;2.60;;;14.70;99.90;;;;;;4920488;29;20553;-66
2021/08/10 05:28:21;;;;;;;3.10;3.00;;;14.70;99.90;;;;;;4925613;29;20557;-66
2021/08/10 05:30:47;;;;;;;3.20;3.10;;;14.70;99.90;;;;;;4928535;29;20482;-66
2021/08/10 05:33:14;;;;;;;3.30;3.00;;;14.70;99.90;;;;;;4927385;29;20466;-66
2021/08/10 05:35:41;;;;;;;3.00;2.87;;;14.70;99.90;;;;;;4924007;29;20826;-67
2021/08/10 05:38:08;;;;;;;3.20;3.00;;;14.80;99.90;;;;;;4914381;29;20499;-67
2021/08/10 05:40:34;;;;;;;4.70;3.23;;;14.80;99.90;;;;;;4902802;29;20589;-67
2021/08/10 05:43:01;;;;;;;3.70;3.00;;;14.80;99.90;;;;;;4917935;29;20522;-69
2021/08/10 05:45:29;;;;;;;3.80;3.50;;;14.80;99.90;;;;;;4917882;29;20463;-68
2021/08/10 05:47:56;;;;;;;3.50;3.00;;;14.90;99.90;;;;;;4917348;29;20834;-68
2021/08/10 05:50:22;;;;;;;3.33;3.07;;;14.90;99.90;;;;;;4917903;29;20516;-68
2021/08/10 05:52:49;;;;;;;3.03;2.80;;;15.00;99.90;;;;;;4917434;29;20525;-68
2021/08/10 05:55:16;;;;;;;2.90;2.80;;;15.00;99.90;;;;;;4918000;29;20467;-66
2021/08/10 05:57:43;;;;;;;2.60;2.50;;;15.10;99.90;;;;;;4917283;29;20465;-68
2021/08/10 06:00:10;;;;;;;2.40;2.20;;;15.10;99.90;;;;;;4917637;29;20869;-70
2021/08/10 06:02:38;;;;;;;2.60;2.50;;;15.20;99.90;;;;;;4917109;29;20855;-70
2021/08/10 06:05:06;;;;;;;3.07;2.80;;;15.30;99.90;;;;;;4917070;29;20465;-70
2021/08/10 06:07:33;;;;;;;3.37;3.10;;;15.40;99.90;;;;;;4917240;29;20895;-67
2021/08/10 06:09:59;;;;;;;2.13;2.13;;;15.50;99.90;;;;;;4917585;29;20526;-67
2021/08/10 06:12:26;;;;;;;2.87;2.67;;;15.60;99.90;;;;;;4917395;29;20856;-66
2021/08/10 06:14:53;;;;;;;2.97;2.60;;;15.60;99.90;;;;;;4917876;29;20478;-67
2021/08/10 06:17:20;;;;;;;3.60;2.63;;;15.60;99.90;;;;;;4915954;29;20970;-68
2021/08/10 06:19:47;;;;;;;2.90;2.80;;;15.60;99.90;;;;;;4916723;29;20522;-68
2021/08/10 06:22:14;;;;;;;2.30;2.00;;;15.70;99.90;;;;;;4917226;29;20490;-67
2021/08/10 06:24:41;;;;;;;2.47;2.30;;;15.70;99.90;;;;;;4917953;29;20466;-68
2021/08/10 06:27:07;;;;;;;2.97;2.77;;;15.60;99.90;;;;;;4917410;29;20857;-68
2021/08/10 06:29:34;;;;;;;2.60;2.40;;;15.70;99.90;;;;;;4907120;29;20542;-67
2021/08/10 06:32:01;;;;;;;2.90;2.50;;;15.70;99.90;;;;;;4916341;29;20491;-66
2021/08/10 06:34:28;;;;;;;3.60;3.40;;;15.80;99.90;;;;;;4916913;29;20801;-66
2021/08/10 06:36:56;;;;;;;2.80;2.70;;;15.80;99.90;;;;;;4916991;29;20454;-66
2021/08/10 06:39:22;;;;;;;3.00;2.80;;;15.80;99.90;;;;;;4917711;29;20454;-66
2021/08/10 06:41:49;;;;;;;3.07;2.87;;;15.80;99.90;;;;;;4917253;29;20487;-67
2021/08/10 06:44:16;;;;;;;2.60;2.50;;;15.90;99.90;;;;;;4917489;29;20466;-66
2021/08/10 06:46:42;;;;;;;2.73;2.20;;;15.90;99.90;;;;;;4916591;29;20466;-67
2021/08/10 06:49:09;;;;;;;3.30;3.10;;;16.00;99.90;;;;;;4917440;29;20490;-68
2021/08/10 06:51:36;;;;;;;3.47;3.33;;;16.00;99.90;;;;;;4917493;29;20486;-69
2021/08/10 06:54:04;;;;;;;3.03;2.83;;;16.10;99.90;;;;;;4917264;29;20502;-69
2021/08/10 06:56:31;;;;;;;3.00;2.73;;;16.20;99.90;;;;;;4917768;29;20955;-69
2021/08/10 06:58:57;;;;;;;2.83;2.63;;;16.20;99.90;;;;;;4916983;29;20848;-68
2021/08/10 07:01:24;;;;;;;3.07;2.87;;;16.30;99.90;;;;;;4918031;29;20585;-69
2021/08/10 07:03:53;;;;;;;2.70;2.60;;;16.30;99.90;;;;;;4916600;29;20486;-69
2021/08/10 07:06:20;;;;;;;1.97;1.97;;;16.30;99.90;;;;;;4915771;29;20470;-69
2021/08/10 07:08:48;;;;;;;3.33;3.03;;;16.30;99.90;;;;;;4913947;29;20526;-69
2021/08/10 07:11:16;;;;;;;3.00;2.80;;;16.30;99.90;;;;;;4916351;29;20856;-70
2021/08/10 07:13:42;;;;;;;3.10;2.90;;;16.30;99.90;;;;;;4916567;29;20584;-68
2021/08/10 07:16:10;;;;;;;2.20;2.20;;;16.30;99.90;;;;;;4916991;29;20541;-67
2021/08/10 07:18:38;;;;;;;3.07;2.90;;;16.30;99.90;;;;;;4909031;29;20975;-67
2021/08/10 07:21:05;;;;;;;3.70;3.40;;;16.30;99.90;;;;;;4919013;29;20582;-68
2021/08/10 07:23:31;;;;;;;2.90;2.80;;;16.20;99.90;;;;;;4915992;29;20819;-67
2021/08/10 07:25:58;;;;;;;3.07;2.97;;;16.00;99.90;;;;;;4916833;29;20931;-67
2021/08/10 07:28:26;;;;;;;3.97;2.93;;;16.00;99.90;;;;;;4916363;29;20465;-67
2021/08/10 07:30:53;;;;;;;3.30;3.20;;;15.90;99.90;;;;;;4917362;29;20552;-67
2021/08/10 07:33:19;;;;;;;3.10;3.00;;;16.00;99.90;;;;;;4916086;29;20467;-67
2021/08/10 07:35:46;;;;;;;3.27;3.07;;;16.00;99.90;;;;;;4917358;29;20485;-67
2021/08/10 07:38:13;;;;;;;3.80;3.50;;;16.00;99.90;;;;;;4916521;29;20498;-68
2021/08/10 07:40:40;;;;;;;3.77;3.47;;;16.00;99.90;;;;;;4917019;29;20482;-67
2021/08/10 07:43:06;;;;;;;3.00;2.80;;;16.10;99.90;;;;;;4916797;29;20462;-67
2021/08/10 07:45:35;;;;;;;3.83;3.63;;;16.10;99.90;;;;;;4916867;29;20831;-67
2021/08/10 07:48:03;;;;;;;4.27;3.63;;;16.20;99.90;;;;;;4915739;29;20474;-67
2021/08/10 07:50:30;;;;;;;3.53;3.37;;;16.30;99.90;;;;;;4916675;29;20494;-66
2021/08/10 07:52:56;;;;;;;3.13;2.90;;;16.50;99.90;;;;;;4915519;29;20487;-67
2021/08/10 07:55:23;;;;;;;5.40;3.37;;;16.70;99.90;;;;;;4917302;29;20473;-66
2021/08/10 07:57:49;;;;;;;3.60;3.37;;;16.80;99.90;;;;;;4917034;29;20490;-66
2021/08/10 08:00:17;;;;;;;3.43;3.13;;;16.90;99.90;;;;;;4916720;29;20557;-68
2021/08/10 08:02:45;;;;;;;3.00;2.80;;;17.00;99.90;;;;;;4915776;29;20486;-68
2021/08/10 08:05:11;;;;;;;2.93;2.73;;;17.00;99.90;;;;;;4916308;29;20462;-68
2021/08/10 08:07:38;;;;;;;3.00;2.80;;;17.00;99.90;;;;;;4915888;29;20490;-67
2021/08/10 08:10:06;;;;;;;3.03;2.83;;;16.90;99.90;;;;;;4916453;29;20569;-68
2021/08/10 08:12:33;;;;;;;2.57;2.47;;;16.70;99.90;;;;;;4915998;29;20466;-69
2021/08/10 08:14:59;;;;;;;3.57;3.27;;;16.60;99.90;;;;;;4916732;29;20733;-68
2021/08/10 08:17:26;;;;;;;4.43;3.83;;;16.50;99.90;;;;;;4914133;29;20503;-69
2021/08/10 08:19:54;;;;;;;4.83;3.90;;;16.30;99.90;;;;;;4915420;29;20769;-69
2021/08/10 08:22:21;;;;;;;4.00;3.70;;;16.10;99.90;;;;;;4918823;29;20478;-69
2021/08/10 08:24:48;;;;;;;4.30;4.00;;;16.10;99.90;;;;;;4920080;29;20478;-68
2021/08/10 08:27:14;;;;;;;5.03;4.70;;;16.00;99.90;;;;;;4918258;29;20569;-68
2021/08/10 08:29:41;;;;;;;5.33;4.60;;;15.90;99.90;;;;;;4917123;29;20497;-68
2021/08/10 08:32:08;;;;;;;5.27;4.70;;;16.00;99.90;;;;;;4919986;29;20494;-69
2021/08/10 08:34:35;;;;;;;4.33;4.03;;;16.00;99.90;;;;;;4916004;29;20474;-68
2021/08/10 08:37:04;;;;;;;5.27;4.87;;;16.10;99.90;;;;;;4921436;29;20574;-68
2021/08/10 08:39:31;;;;;;;4.50;4.27;;;16.00;99.90;;;;;;4918690;29;20454;-68
2021/08/10 08:41:59;;;;;;;7.20;5.20;;;16.10;99.90;;;;;;4917481;29;20494;-68
2021/08/10 08:44:26;;;;;;;5.13;4.83;;;16.10;99.90;;;;;;4912136;29;20463;-68
2021/08/10 08:46:54;;;;;;;5.77;5.27;;;16.10;99.90;;;;;;4918000;29;20557;-68
2021/08/10 08:49:23;;;;;;;5.20;4.70;;;16.00;99.90;;;;;;4918631;29;20845;-68
2021/08/10 08:51:50;;;;;;;7.13;4.80;;;16.00;99.90;;;;;;4916663;29;20577;-68
2021/08/10 08:54:18;;;;;;;5.03;4.60;;;16.00;99.90;;;;;;4918870;29;20876;-68
2021/08/10 08:56:45;;;;;;;5.30;4.90;;;16.10;99.90;;;;;;4910080;29;20503;-68
2021/08/10 08:59:12;;;;;;;5.13;4.83;;;16.10;99.90;;;;;;4919220;29;20470;-68
2021/08/10 09:01:39;;;;;;;5.20;4.80;;;16.30;99.90;;;;;;4905642;29;20537;-68
2021/08/10 09:04:07;;;;;;;5.50;4.97;;;16.40;99.90;;;;;;4916499;29;20466;-70
2021/08/10 09:06:34;;;;;;;5.10;4.20;;;16.50;99.90;;;;;;4919053;29;20467;-68
2021/08/10 09:09:21;;;;;;;4.50;4.30;;;16.60;99.90;;;;;;4918360;29;20874;-69
2021/08/10 09:11:49;;;;;;;5.60;5.20;;;16.70;99.90;;;;;;4918358;29;20549;-68
2021/08/10 09:14:15;;;;;;;5.07;4.57;;;16.90;99.90;;;;;;4918457;29;20478;-69
2021/08/10 09:17:01;;;;;;;4.17;3.90;;;17.00;99.90;;;;;;4917897;29;20495;-68
2021/08/10 09:19:40;;;;;;;4.00;3.90;;;17.10;99.90;;;;;;4916592;29;20549;-69
2021/08/10 09:22:19;;;;;;;3.20;3.10;;;17.30;99.90;;;;;;4909652;29;20512;-68
2021/08/10 09:24:49;;;;;;;4.60;3.90;;;17.30;99.90;;;;;;4912500;29;20459;-68
2021/08/10 09:27:28;;;;;;;4.20;3.53;;;17.40;99.90;;;;;;4906798;29;20464;-69
2021/08/10 09:29:54;;;;;;;3.57;3.37;;;17.50;99.90;;;;;;4912124;29;20844;-69
2021/08/10 09:32:21;;;;;;;3.67;3.43;;;17.60;99.90;;;;;;4916035;29;20489;-69
2021/08/10 09:35:08;;;;;;;4.30;3.90;;;17.70;99.90;;;;;;4912142;29;20474;-70
2021/08/10 09:37:35;;;;;;;5.30;4.30;;;17.70;99.90;;;;;;4911691;29;20466;-68
2021/08/10 09:40:28;;;;;;;3.67;3.47;;;17.80;99.90;;;;;;4919574;29;20486;-69
2021/08/10 09:42:55;;;;;;;4.33;4.13;;;17.80;99.90;;;;;;4917867;29;20532;-69
2021/08/10 09:45:22;;;;;;;3.77;3.20;;;18.00;99.90;;;;;;4914569;29;20478;-68
2021/08/10 09:47:48;;;;;;;3.80;3.60;;;18.10;99.90;;;;;;4917260;29;20550;-68
2021/08/10 09:50:17;;;;;;;4.37;4.00;;;18.10;99.90;;;;;;4918019;29;20486;-67
2021/08/10 09:52:45;;;;;;;3.40;3.30;;;18.10;99.90;;;;;;4917415;29;20473;-68
2021/08/10 09:55:14;;;;;;;4.57;4.30;;;18.10;99.90;;;;;;4918269;29;20471;-68
2021/08/10 09:57:44;;;;;;;4.40;4.00;;;18.20;99.90;;;;;;4917764;29;20462;-68
2021/08/10 10:00:12;;;;;;;4.40;4.10;;;18.20;99.90;;;;;;4917844;29;20561;-69
2021/08/10 10:02:38;;;;;;;4.00;3.90;;;18.40;99.90;;;;;;4917210;29;20505;-68
2021/08/10 10:05:06;;;;;;;4.13;3.93;;;18.40;99.90;;;;;;4911430;29;20975;-69
2021/08/10 10:07:32;;;;;;;4.07;3.73;;;18.40;99.90;;;;;;4909826;29;20478;-68
2021/08/10 10:10:00;;;;;;;4.47;4.17;;;18.40;99.90;;;;;;4917202;29;20926;-68
2021/08/10 10:12:27;;;;;;;4.60;4.20;;;18.40;99.90;;;;;;4918076;29;20497;-69
2021/08/10 10:14:59;;;;;;;3.87;3.63;;;18.50;99.90;;;;;;4917920;29;20466;-68
2021/08/10 10:17:30;;;;;;;5.80;3.80;;;18.70;99.90;;;;;;4913305;29;20840;-68
2021/08/10 10:19:57;;;;;;;3.33;3.20;;;18.80;99.90;;;;;;4912569;29;20466;-68
2021/08/10 10:22:26;;;;;;;4.17;3.90;;;18.90;99.90;;;;;;4916348;29;20501;-68
2021/08/10 10:24:54;;;;;;;4.17;3.70;;;19.10;99.90;;;;;;4917093;29;20521;-69
2021/08/10 10:27:23;;;;;;;4.07;3.97;;;19.10;99.90;;;;;;4917199;29;20469;-68
2021/08/10 10:29:54;;;;;;;4.17;3.80;;;19.10;99.90;;;;;;4916644;29;20556;-69
2021/08/10 10:32:23;;;;;;;5.60;3.93;;;19.20;99.90;;;;;;4910958;29;20511;-69
2021/08/10 10:34:50;;;;;;;3.93;3.60;;;19.40;99.90;;;;;;4917651;29;20834;-68
2021/08/10 10:37:20;;;;;;;3.77;3.57;;;19.50;99.90;;;;;;4922041;29;20467;-67
2021/08/10 10:39:49;;;;;;;3.53;3.43;;;19.70;99.90;;;;;;4916446;29;20490;-68
2021/08/10 10:42:16;;;;;;;3.30;3.10;;;19.80;99.90;;;;;;4914308;29;20498;-68
2021/08/10 10:44:46;;;;;;;3.43;3.20;;;20.00;99.90;;;;;;4916682;29;20802;-68
2021/08/10 10:47:38;;;;;;;4.27;4.03;;;20.10;99.90;;;;;;4915605;29;20470;-69
2021/08/10 10:50:16;;;;;;;3.97;3.67;;;20.40;99.90;;;;;;4916176;29;20482;-68
2021/08/10 10:53:03;;;;;;;3.77;3.57;;;20.60;99.90;;;;;;4916304;29;20470;-68
2021/08/10 10:55:32;;;;;;;4.07;3.87;;;20.60;99.90;;;;;;4917421;29;20462;-68
2021/08/10 10:57:59;;;;;;;3.40;3.33;;;20.50;99.90;;;;;;4916404;29;20478;-68
2021/08/10 11:00:27;;;;;;;4.30;4.07;;;20.50;99.90;;;;;;4917242;29;20526;-68
2021/08/10 11:03:14;;;;;;;4.97;3.57;;;20.50;99.90;;;;;;4916258;29;21038;-68
2021/08/10 11:05:40;;;;;;;7.07;3.90;;;20.40;99.90;;;;;;4904315;29;20816;-68
2021/08/10 11:08:38;;;;;;;5.23;4.30;;;20.40;99.90;;;;;;4898528;29;20479;-68
2021/08/10 11:11:04;;;;;;;4.97;4.67;;;20.50;99.90;;;;;;4915223;29;20685;-68
2021/08/10 11:13:38;;;;;;;3.97;3.80;;;20.60;99.90;;;;;;4916539;29;20466;-68
2021/08/10 11:16:06;;;;;;;3.70;3.50;;;20.70;99.90;;;;;;4916659;29;20471;-67
2021/08/10 11:18:33;;;;;;;6.03;4.47;;;20.80;99.90;;;;;;4916364;29;20478;-68
2021/08/10 11:21:26;;;;;;;4.07;3.80;;;20.70;99.90;;;;;;4917207;29;20927;-68
2021/08/10 11:23:55;;;;;;;4.23;3.93;;;20.60;99.90;;;;;;4915793;29;21006;-68
2021/08/10 11:26:39;;;;;;;6.77;4.50;;;20.60;99.90;;;;;;4915935;29;20485;-66
2021/08/10 11:29:11;;;;;;;6.07;4.40;;;20.60;99.90;;;;;;4902542;29;20838;-66
2021/08/10 11:31:51;;;;;;;4.53;4.23;;;20.60;99.90;;;;;;4897152;29;21029;-66
2021/08/10 11:34:38;;;;;;;4.50;4.10;;;20.60;99.90;;;;;;4896953;29;20467;-67
2021/08/10 11:37:26;;;;;;;4.90;4.50;;;20.40;99.90;;;;;;4908711;29;20537;-68
2021/08/10 11:40:15;;;;;;;5.30;4.87;;;20.20;99.90;;;;;;4916338;29;20473;-69
2021/08/10 11:42:43;;;;;;;5.63;5.27;;;19.70;99.90;;;;;;4911760;29;20473;-67
2021/08/10 11:45:10;;;;;;;7.13;6.47;;;19.20;99.90;;;;;;4916641;29;20553;-68
2021/08/10 11:47:37;;;;;;;5.90;5.50;;;18.70;99.90;;;;;;4916398;29;20900;-68
2021/08/10 11:50:05;;;;;;;8.20;7.63;;;18.30;99.90;;;;;;4915742;29;20474;-67
2021/08/10 11:52:46;;;;;;;8.00;7.40;;;18.40;99.90;;;;;;4915005;29;20501;-67
2021/08/10 11:55:13;;;;;;;7.67;6.63;;;18.50;99.90;;;;;;4916204;29;20478;-67
2021/08/10 11:57:57;;;;;;;7.13;6.70;;;18.50;99.90;;;;;;4915630;29;20470;-68
2021/08/10 12:00:26;;;;;;;7.00;6.63;;;18.60;99.90;;;;;;4916052;29;20541;-67
2021/08/10 12:02:53;;;;;;;6.37;6.07;;;18.60;99.90;;;;;;4915330;29;20470;-68
2021/08/10 12:05:19;;;;;;;7.50;7.00;;;18.60;99.90;;;;;;4916069;29;20474;-67
2021/08/10 12:07:50;;;;;;;7.33;6.67;;;18.70;99.90;;;;;;4902575;29;20936;-68
2021/08/10 12:10:27;;;;;;;6.17;5.77;;;18.90;99.90;;;;;;4916100;29;20786;-67
2021/08/10 12:12:53;;;;;;;6.93;6.23;;;19.10;99.90;;;;;;4915621;29;20482;-67
2021/08/10 12:15:41;;;;;;;5.93;5.50;;;19.20;99.90;;;;;;4916643;29;20462;-67
2021/08/10 12:18:08;;;;;;;6.50;6.13;;;19.20;99.90;;;;;;4915799;29;20885;-68
2021/08/10 12:20:35;;;;;;;6.00;5.70;;;19.40;99.90;;;;;;4916978;29;20482;-67
2021/08/10 12:23:03;;;;;;;6.20;5.60;;;19.60;99.90;;;;;;4915096;29;20463;-68
2021/08/10 12:25:31;;;;;;;5.70;5.20;;;19.70;99.90;;;;;;4915914;29;20932;-67
2021/08/10 12:28:02;;;;;;;6.30;5.80;;;19.80;99.90;;;;;;4915976;29;20470;-67
2021/08/10 12:30:32;;;;;;;5.20;4.90;;;20.00;99.90;;;;;;4915583;29;20495;-67
2021/08/10 12:33:12;;;;;;;5.60;5.20;;;20.00;99.90;;;;;;4916144;29;20481;-67
2021/08/10 12:35:39;;;;;;;6.30;4.93;;;19.80;99.90;;;;;;4915499;29;20792;-67
2021/08/10 12:38:06;;;;;;;6.40;5.90;;;19.80;99.90;;;;;;4914601;29;20466;-67
2021/08/10 12:40:33;;;;;;;6.00;5.60;;;19.80;99.90;;;;;;4915965;29;20507;-68
2021/08/10 12:43:00;;;;;;;5.23;4.73;;;19.80;99.90;;;;;;4915797;29;20477;-68
2021/08/10 12:45:31;;;;;;;5.77;5.27;;;19.90;99.90;;;;;;4916580;29;20495;-67
2021/08/10 12:47:58;;;;;;;6.53;6.03;;;20.00;99.90;;;;;;4915648;29;20478;-67
2021/08/10 12:50:27;;;;;;;5.57;5.07;;;20.10;99.90;;;;;;4915667;29;20478;-68
2021/08/10 12:52:54;;;;;;;5.40;5.10;;;20.20;99.90;;;;;;4915143;29;20526;-67
2021/08/10 12:55:22;;;;;;;5.37;5.07;;;20.20;99.90;;;;;;4915819;29;20467;-67
2021/08/10 12:57:59;;;;;;;5.20;5.00;;;20.20;99.90;;;;;;4915276;29;20566;-68
2021/08/10 13:00:27;;;;;;;5.37;5.07;;;20.20;99.90;;;;;;4915410;29;20470;-67
2021/08/10 13:02:54;;;;;;;5.37;5.03;;;20.30;99.90;;;;;;4915006;29;20471;-67
2021/08/10 13:05:22;;;;;;;5.30;4.57;;;20.20;99.90;;;;;;4918462;29;20470;-67
2021/08/10 13:08:04;;;;;;;5.30;4.80;;;20.40;99.90;;;;;;4918941;29;20497;-67
2021/08/10 13:10:33;;;;;;;6.00;5.10;;;20.40;99.90;;;;;;4918985;29;20505;-67
2021/08/10 13:13:01;;;;;;;5.80;5.40;;;20.50;99.90;;;;;;4918753;29;21038;-67
2021/08/10 13:15:28;;;;;;;5.80;5.40;;;20.60;99.90;;;;;;4919593;29;20458;-67
2021/08/10 13:17:55;;;;;;;4.80;4.50;;;20.70;99.90;;;;;;4919846;29;20466;-67
2021/08/10 13:20:23;;;;;;;3.80;3.60;;;20.90;99.90;;;;;;4919857;29;20470;-67
2021/08/10 13:22:52;;;;;;;4.20;4.00;;;20.90;99.90;;;;;;4918633;29;20477;-67
2021/08/10 13:25:22;;;;;;;5.37;4.30;;;20.90;99.90;;;;;;4919839;29;20504;-67
2021/08/10 13:27:49;;;;;;;4.30;4.00;;;20.90;99.90;;;;;;4918645;29;20475;-67
2021/08/10 13:30:22;;;;;;;4.57;4.20;;;20.80;99.90;;;;;;4918581;29;20462;-67
2021/08/10 13:33:18;;;;;;;4.63;4.30;;;20.80;99.90;;;;;;4919277;29;20501;-67
2021/08/10 13:35:46;;;;;;;4.27;4.07;;;20.60;99.90;;;;;;4896993;29;20472;-67
2021/08/10 13:38:13;;;;;;;4.37;4.00;;;20.60;99.90;;;;;;4918266;29;20474;-66
2021/08/10 13:40:42;;;;;;;4.40;4.20;;;20.60;99.90;;;;;;4918855;29;20482;-66
2021/08/10 13:43:09;;;;;;;5.10;4.80;;;20.70;99.90;;;;;;4917110;29;20911;-66
2021/08/10 13:45:37;;;;;;;5.43;5.07;;;20.70;99.90;;;;;;4915748;29;20871;-66
2021/08/10 13:48:04;;;;;;;4.90;4.70;;;20.70;99.90;;;;;;4917746;29;20530;-67
2021/08/10 13:50:31;;;;;;;4.60;4.40;;;20.70;99.90;;;;;;4917141;29;20505;-66
2021/08/10 13:52:58;;;;;;;4.70;4.50;;;20.70;99.90;;;;;;4918127;29;21012;-66
2021/08/10 13:55:24;;;;;;;4.13;4.03;;;20.80;99.90;;;;;;4917720;29;20537;-67
2021/08/10 13:57:53;;;;;;;4.50;4.20;;;20.90;99.90;;;;;;4917594;29;20547;-67
2021/08/10 14:00:20;;;;;;;4.50;4.40;;;21.20;99.90;;;;;;4917820;29;20463;-68
2021/08/10 14:02:47;;;;;;;7.53;4.27;;;21.40;99.90;;;;;;4916924;29;20462;-67
2021/08/10 14:05:14;;;;;;;4.00;3.80;;;21.50;99.90;;;;;;4917738;29;20470;-67
2021/08/10 14:07:40;;;;;;;4.53;4.27;;;21.50;99.90;;;;;;4917280;29;20543;-68
2021/08/10 14:10:09;;;;;;;3.97;3.77;;;21.50;99.90;;;;;;4917487;29;20895;-67
2021/08/10 14:12:36;;;;;;;4.90;4.60;;;21.70;99.90;;;;;;4917709;29;20991;-67
2021/08/10 14:15:06;;;;;;;3.70;3.43;;;21.80;99.90;;;;;;4910507;29;20459;-67
2021/08/10 14:17:32;;;;;;;3.43;3.33;;;21.80;99.90;;;;;;4910962;29;20472;-67
2021/08/10 14:19:59;;;;;;;4.43;3.50;;;21.90;99.90;;;;;;4908474;29;21080;-66
2021/08/10 14:22:26;;;;;;;3.93;3.73;;;21.90;99.90;;;;;;4916530;29;21054;-67
2021/08/10 14:24:52;;;;;;;4.30;4.03;;;21.90;99.90;;;;;;4917464;29;20527;-67
2021/08/10 14:27:20;;;;;;;4.00;3.70;;;21.80;99.90;;;;;;4916840;29;20463;-67
2021/08/10 14:29:46;;;;;;;3.97;3.77;;;21.80;99.90;;;;;;4916531;29;20590;-69
2021/08/10 14:32:14;;;;;;;3.83;3.73;;;21.80;99.90;;;;;;4916514;29;20502;-72
2021/08/10 14:34:41;;;;;;;3.70;3.53;;;21.90;99.90;;;;;;4916677;29;20549;-73
2021/08/10 14:37:08;;;;;;;4.00;3.80;;;21.80;99.90;;;;;;4918019;29;20526;-67
2021/08/10 14:39:34;;;;;;;3.33;3.23;;;21.70;99.90;;;;;;4924961;29;20550;-67
2021/08/10 14:42:01;;;;;;;3.97;3.70;;;21.60;99.90;;;;;;4917008;29;20482;-69
2021/08/10 14:44:28;;;;;;;4.17;4.00;;;21.60;99.90;;;;;;4916873;29;20609;-71
2021/08/10 14:46:54;;;;;;;3.80;3.60;;;21.50;99.90;;;;;;4916903;29;20475;-71
2021/08/10 14:49:22;;;;;;;3.77;3.57;;;21.40;99.90;;;;;;4916592;29;20466;-71
2021/08/10 14:51:49;;;;;;;3.40;3.20;;;21.30;99.90;;;;;;4916246;29;20490;-71
2021/08/10 14:54:15;;;;;;;4.13;3.83;;;21.20;99.90;;;;;;4916530;29;20494;-71
2021/08/10 14:56:42;;;;;;;3.33;3.20;;;21.20;99.90;;;;;;4908827;29;20471;-71
2021/08/10 14:59:09;;;;;;;3.23;3.13;;;21.10;99.90;;;;;;4897854;29;20775;-71
2021/08/10 15:01:35;;;;;;;3.00;2.90;;;21.40;99.90;;;;;;4908739;29;20561;-71
2021/08/10 15:04:02;;;;;;;3.67;3.50;;;21.60;99.90;;;;;;4916069;29;20794;-72
2021/08/10 15:06:31;;;;;;;3.20;3.00;;;21.80;99.90;;;;;;4917093;29;20471;-72
2021/08/10 15:08:57;;;;;;;3.73;3.53;;;21.80;99.90;;;;;;4915677;29;20939;-71
2021/08/10 15:11:24;;;;;;;3.03;2.83;;;21.80;99.90;;;;;;4916854;29;20494;-72
2021/08/10 15:13:51;;;;;;;3.80;3.60;;;21.70;99.90;;;;;;4915836;29;20462;-72
2021/08/10 15:16:17;;;;;;;3.63;3.43;;;21.60;99.90;;;;;;4916971;29;20477;-72
2021/08/10 15:18:44;;;;;;;4.00;3.70;;;21.50;99.90;;;;;;4915943;29;20476;-72
2021/08/10 15:21:10;;;;;;;3.50;3.30;;;21.30;99.90;;;;;;4916129;29;20494;-71
2021/08/10 15:23:38;;;;;;;3.83;3.73;;;21.10;99.90;;;;;;4915341;29;20482;-71
2021/08/10 15:26:05;;;;;;;3.77;3.57;;;20.90;99.90;;;;;;4915916;29;20545;-71
2021/08/10 15:28:32;;;;;;;4.17;3.97;;;20.80;99.90;;;;;;4916281;29;20474;-71
2021/08/10 15:30:59;;;;;;;3.70;3.60;;;20.70;99.90;;;;;;4916356;29;20549;-71
2021/08/10 15:33:25;;;;;;;3.70;3.60;;;20.70;99.90;;;;;;4915311;29;20868;-70
2021/08/10 15:35:52;;;;;;;4.20;3.87;;;20.60;99.90;;;;;;4916394;29;20466;-72
2021/08/10 15:38:19;;;;;;;3.87;3.43;;;20.60;99.90;;;;;;4915503;29;20475;-71
2021/08/10 15:40:47;;;;;;;4.30;4.10;;;20.60;99.90;;;;;;4915530;29;20863;-71
2021/08/10 15:43:13;;;;;;;4.03;3.93;;;20.40;99.90;;;;;;4915505;29;20518;-68
2021/08/10 15:45:40;;;;;;;3.17;3.07;;;20.30;99.90;;;;;;4913557;29;20467;-68
2021/08/10 15:48:09;;;;;;;4.57;4.17;;;20.10;99.90;;;;;;4912212;29;20458;-68
2021/08/10 15:50:36;;;;;;;3.93;3.70;;;20.00;99.90;;;;;;4914665;29;20486;-68
2021/08/10 15:53:04;;;;;;;3.67;3.57;;;19.80;99.90;;;;;;4914313;29;20994;-67
2021/08/10 15:55:31;;;;;;;4.27;4.17;;;19.70;99.90;;;;;;4915228;29;20978;-68
2021/08/10 15:57:59;;;;;;;4.23;4.10;;;19.50;99.90;;;;;;4915362;29;20474;-68
2021/08/10 16:00:26;;;;;;;4.60;4.20;;;19.40;99.90;;;;;;4896973;29;20534;-68
2021/08/10 16:02:52;;;;;;;3.63;3.43;;;19.30;99.90;;;;;;4895793;29;20598;-67
2021/08/10 16:05:19;;;;;;;4.07;3.70;;;19.00;99.90;;;;;;4896777;29;20475;-68
2021/08/10 16:07:46;;;;;;;3.13;3.00;;;18.70;99.90;;;;;;4896370;29;20471;-67
2021/08/10 16:10:12;;;;;;;3.70;3.60;;;18.40;99.90;;;;;;4896992;29;20471;-67
2021/08/10 16:12:39;;;;;;;3.97;3.77;;;18.10;99.90;;;;;;4896441;29;20495;-68
2021/08/10 16:15:09;;;;;;;3.40;3.30;;;17.90;99.90;;;;;;4901692;29;20463;-68
2021/08/10 16:17:35;;;;;;;3.13;3.00;;;17.70;99.90;;;;;;4908151;29;20527;-67
2021/08/10 16:20:02;;;;;;;4.30;3.30;;;17.50;99.90;;;;;;4896259;29;20503;-68
2021/08/10 16:22:29;;;;;;;2.80;2.70;;;17.30;99.90;;;;;;4895950;29;20968;-67
2021/08/10 16:24:56;;;;;;;3.80;3.50;;;16.90;99.90;;;;;;4896769;29;20614;-69
2021/08/10 16:27:23;;;;;;;3.40;3.20;;;16.80;99.90;;;;;;4896931;29;20558;-69
2021/08/10 16:29:50;;;;;;;3.20;3.00;;;16.60;99.90;;;;;;4896802;29;20838;-70
2021/08/10 16:32:19;;;;;;;3.60;3.33;;;16.40;99.90;;;;;;4909437;29;20590;-70
2021/08/10 16:34:46;;;;;;;3.50;3.10;;;16.40;99.90;;;;;;4915171;29;20477;-69
2021/08/10 16:37:13;;;;;;;4.10;3.90;;;16.40;99.90;;;;;;4915124;29;20549;-70
2021/08/10 16:39:39;;;;;;;4.17;3.90;;;16.40;99.90;;;;;;4917777;29;21141;-70
2021/08/10 16:42:06;;;;;;;3.80;3.70;;;16.40;99.90;;;;;;4918837;29;20482;-70
2021/08/10 16:44:34;;;;;;;4.17;3.97;;;16.40;99.90;;;;;;4919178;29;20506;-70
2021/08/10 16:47:01;;;;;;;4.27;4.03;;;16.50;99.90;;;;;;4918948;29;20471;-70
2021/08/10 16:49:31;;;;;;;4.60;4.40;;;16.50;99.90;;;;;;4918620;29;20478;-70
2021/08/10 16:51:58;;;;;;;6.50;4.90;;;16.50;99.90;;;;;;4918613;29;20517;-70
2021/08/10 16:54:24;;;;;;;4.87;4.47;;;16.60;99.90;;;;;;4918840;29;20836;-70
2021/08/10 16:56:51;;;;;;;4.77;4.47;;;16.60;99.90;;;;;;4909975;29;20479;-70